메인 페이지
METAR-TAF:

METAR-TAF

공항 :

마드리드 바라하스 국제공항

마드리드, 스페인

위도: 40-27N, 경도: 003-33W, 고도: 609m

현재 날씨관측

예보는 18분 전, 09:30시(UTC)에 발표되었습니다.
남남동6kt동남동풍과 남남서풍을 오가는
온도 12°C
습도 71%
기압 1011 hPa
시정 10km 이상
고도 5000ft 상공 구름 조금

METAR: LEMD 150930Z 16006KT 120V200 9999 FEW050 12/07 Q1011 NOSIG

시각: 11:48 (09:48 UTC)

예보

예보는 4 시간 48분 전, 05:00시(UTC)에 발표되었습니다.
예보 대상 시간: 15일 06시부터 16일 12시까지 (UTC)
여러 방향의 바람 5kt
시정 10km 이상
1500m 미만 상공 구름 및 적란운 없음
확률 30% :
일시적
15일 09시부터 15일 18시까지 (UTC)
시정: 3000m
고도 3000ft 상공 구름 많음
일시적
15일 08시부터 15일 16시까지 (UTC)
남서10kt
확률 40% :
일시적
15일 09시부터 15일 16시까지 (UTC)
남서15kt, 순간 최대 풍속 25kt

TAF: LEMD 150500Z 1506/1612 VRB05KT CAVOK TX17/1514Z TN07/1606Z PROB30 TEMPO 1509/1518 3000 RA BKN030 TEMPO 1508/1516 23010KT PROB40 TEMPO 1509/1516 23015G25KT

4,000개 이상의 공항 관측 자료 및 예보 (METAR 및 TAF 보고).

지도상에서 검색 가능한 기상관측소가 노란 점과 빨간 점으로 표시되어 있습니다.

기상관측소 명을 보려면 표시 위로 마우스를 이동하세요.

날씨 관측과 예보를 보려면 클릭하세요.

지도 변경 : 확대하려면 엑스 표시가 있는 녹색 버튼, 축소하려면 빼기 표시가 있는 녹색 버튼, 다음 페이지의 지도를 보려면 녹색 화살표를 클릭하세요.


METAR-TAF: